sensor_id;sensor_type;location;lat;lon;timestamp;temperature;humidity
75819;DHT22;64453;51.944;9.796;2023-05-21T00:01:04;18.50;55.50
75819;DHT22;64453;51.944;9.796;2023-05-21T00:03:31;18.40;55.40
75819;DHT22;64453;51.944;9.796;2023-05-21T00:05:58;18.40;55.40
75819;DHT22;64453;51.944;9.796;2023-05-21T00:08:26;18.40;55.50
75819;DHT22;64453;51.944;9.796;2023-05-21T00:10:52;18.20;55.50
75819;DHT22;64453;51.944;9.796;2023-05-21T00:13:21;18.20;55.90
75819;DHT22;64453;51.944;9.796;2023-05-21T00:15:48;18.10;56.00
75819;DHT22;64453;51.944;9.796;2023-05-21T00:18:14;18.20;55.80
75819;DHT22;64453;51.944;9.796;2023-05-21T00:20:41;18.20;55.60
75819;DHT22;64453;51.944;9.796;2023-05-21T00:23:10;18.10;55.70
75819;DHT22;64453;51.944;9.796;2023-05-21T00:25:36;18.10;55.70
75819;DHT22;64453;51.944;9.796;2023-05-21T00:28:03;18.10;55.70
75819;DHT22;64453;51.944;9.796;2023-05-21T00:30:32;18.10;55.60
75819;DHT22;64453;51.944;9.796;2023-05-21T00:32:59;18.10;55.30
75819;DHT22;64453;51.944;9.796;2023-05-21T00:35:27;18.10;55.50
75819;DHT22;64453;51.944;9.796;2023-05-21T00:37:54;18.00;55.50
75819;DHT22;64453;51.944;9.796;2023-05-21T00:40:21;18.00;55.70
75819;DHT22;64453;51.944;9.796;2023-05-21T00:42:48;18.00;55.80
75819;DHT22;64453;51.944;9.796;2023-05-21T00:45:15;18.00;56.00
75819;DHT22;64453;51.944;9.796;2023-05-21T00:47:44;17.80;55.70
75819;DHT22;64453;51.944;9.796;2023-05-21T00:50:13;17.90;55.80
75819;DHT22;64453;51.944;9.796;2023-05-21T00:52:42;17.80;55.80
75819;DHT22;64453;51.944;9.796;2023-05-21T00:55:10;17.80;56.00
75819;DHT22;64453;51.944;9.796;2023-05-21T00:57:38;17.70;56.30
75819;DHT22;64453;51.944;9.796;2023-05-21T01:00:06;17.70;56.20
75819;DHT22;64453;51.944;9.796;2023-05-21T01:02:35;17.60;56.30
75819;DHT22;64453;51.944;9.796;2023-05-21T01:05:04;17.60;56.60
75819;DHT22;64453;51.944;9.796;2023-05-21T01:07:32;17.70;56.20
75819;DHT22;64453;51.944;9.796;2023-05-21T01:10:01;17.50;56.50
75819;DHT22;64453;51.944;9.796;2023-05-21T01:12:30;17.60;56.40
75819;DHT22;64453;51.944;9.796;2023-05-21T01:14:58;17.70;55.70
75819;DHT22;64453;51.944;9.796;2023-05-21T01:17:26;17.70;55.60
75819;DHT22;64453;51.944;9.796;2023-05-21T01:19:55;17.60;55.50
75819;DHT22;64453;51.944;9.796;2023-05-21T01:22:25;17.60;56.10
75819;DHT22;64453;51.944;9.796;2023-05-21T01:24:55;17.50;56.00
75819;DHT22;64453;51.944;9.796;2023-05-21T01:27:22;17.50;55.80
75819;DHT22;64453;51.944;9.796;2023-05-21T01:29:49;17.40;55.50
75819;DHT22;64453;51.944;9.796;2023-05-21T01:32:21;17.40;55.30
75819;DHT22;64453;51.944;9.796;2023-05-21T01:34:55;17.30;55.40
75819;DHT22;64453;51.944;9.796;2023-05-21T01:37:29;17.30;55.40
75819;DHT22;64453;51.944;9.796;2023-05-21T01:40:07;17.30;55.40
75819;DHT22;64453;51.944;9.796;2023-05-21T01:42:38;17.30;56.10
75819;DHT22;64453;51.944;9.796;2023-05-21T01:45:09;17.20;56.40
75819;DHT22;64453;51.944;9.796;2023-05-21T01:47:38;17.20;56.60
75819;DHT22;64453;51.944;9.796;2023-05-21T01:50:08;17.20;56.40
75819;DHT22;64453;51.944;9.796;2023-05-21T01:52:35;17.20;56.40
75819;DHT22;64453;51.944;9.796;2023-05-21T01:55:05;17.20;56.20
75819;DHT22;64453;51.944;9.796;2023-05-21T01:57:32;17.10;56.70
75819;DHT22;64453;51.944;9.796;2023-05-21T01:59:59;17.10;56.60
75819;DHT22;64453;51.944;9.796;2023-05-21T02:02:26;17.20;55.50
75819;DHT22;64453;51.944;9.796;2023-05-21T02:04:53;17.10;55.40
75819;DHT22;64453;51.944;9.796;2023-05-21T02:07:20;17.10;56.10
75819;DHT22;64453;51.944;9.796;2023-05-21T02:09:47;17.00;55.70
75819;DHT22;64453;51.944;9.796;2023-05-21T02:12:15;16.90;56.90
75819;DHT22;64453;51.944;9.796;2023-05-21T02:14:42;16.90;56.10
75819;DHT22;64453;51.944;9.796;2023-05-21T02:17:11;16.90;55.90
75819;DHT22;64453;51.944;9.796;2023-05-21T02:19:38;16.90;55.80
75819;DHT22;64453;51.944;9.796;2023-05-21T02:22:06;16.90;56.30
75819;DHT22;64453;51.944;9.796;2023-05-21T02:24:33;16.90;55.80
75819;DHT22;64453;51.944;9.796;2023-05-21T02:26:59;16.90;56.40
75819;DHT22;64453;51.944;9.796;2023-05-21T02:29:28;16.90;56.10
75819;DHT22;64453;51.944;9.796;2023-05-21T02:31:55;16.90;55.20
75819;DHT22;64453;51.944;9.796;2023-05-21T02:34:22;16.90;55.90
75819;DHT22;64453;51.944;9.796;2023-05-21T02:36:49;16.90;55.50
75819;DHT22;64453;51.944;9.796;2023-05-21T02:39:16;16.80;54.90
75819;DHT22;64453;51.944;9.796;2023-05-21T02:41:44;16.70;55.30
75819;DHT22;64453;51.944;9.796;2023-05-21T02:44:11;16.60;56.00
75819;DHT22;64453;51.944;9.796;2023-05-21T02:46:39;16.60;56.40
75819;DHT22;64453;51.944;9.796;2023-05-21T02:49:06;16.60;56.90
75819;DHT22;64453;51.944;9.796;2023-05-21T02:51:33;16.60;56.70
75819;DHT22;64453;51.944;9.796;2023-05-21T02:54:00;16.70;55.60
75819;DHT22;64453;51.944;9.796;2023-05-21T02:56:26;16.60;55.80
75819;DHT22;64453;51.944;9.796;2023-05-21T02:58:53;16.60;55.30
75819;DHT22;64453;51.944;9.796;2023-05-21T03:01:20;16.60;55.60
75819;DHT22;64453;51.944;9.796;2023-05-21T03:03:48;16.60;55.60
75819;DHT22;64453;51.944;9.796;2023-05-21T03:06:15;16.60;55.40
75819;DHT22;64453;51.944;9.796;2023-05-21T03:08:42;16.50;55.10
75819;DHT22;64453;51.944;9.796;2023-05-21T03:11:09;16.40;55.10
75819;DHT22;64453;51.944;9.796;2023-05-21T03:13:35;16.50;55.40
75819;DHT22;64453;51.944;9.796;2023-05-21T03:16:03;16.50;55.20
75819;DHT22;64453;51.944;9.796;2023-05-21T03:18:30;16.40;54.90
75819;DHT22;64453;51.944;9.796;2023-05-21T03:20:58;16.40;55.10
75819;DHT22;64453;51.944;9.796;2023-05-21T03:23:26;16.40;54.80
75819;DHT22;64453;51.944;9.796;2023-05-21T03:25:52;16.40;54.70
75819;DHT22;64453;51.944;9.796;2023-05-21T03:28:19;16.40;54.70
75819;DHT22;64453;51.944;9.796;2023-05-21T03:30:46;16.40;54.50
75819;DHT22;64453;51.944;9.796;2023-05-21T03:33:14;16.30;54.90
75819;DHT22;64453;51.944;9.796;2023-05-21T03:35:41;16.20;56.00
75819;DHT22;64453;51.944;9.796;2023-05-21T03:38:09;16.20;55.90
75819;DHT22;64453;51.944;9.796;2023-05-21T03:40:36;16.30;55.40
75819;DHT22;64453;51.944;9.796;2023-05-21T03:43:03;16.40;55.10
75819;DHT22;64453;51.944;9.796;2023-05-21T03:45:30;16.40;54.70
75819;DHT22;64453;51.944;9.796;2023-05-21T03:47:57;16.40;54.90
75819;DHT22;64453;51.944;9.796;2023-05-21T03:50:24;16.40;55.00
75819;DHT22;64453;51.944;9.796;2023-05-21T03:52:51;16.30;55.00
75819;DHT22;64453;51.944;9.796;2023-05-21T03:55:19;16.40;54.70
75819;DHT22;64453;51.944;9.796;2023-05-21T03:57:46;16.30;54.90
75819;DHT22;64453;51.944;9.796;2023-05-21T04:00:13;16.40;55.10
75819;DHT22;64453;51.944;9.796;2023-05-21T04:02:40;16.40;55.30
75819;DHT22;64453;51.944;9.796;2023-05-21T04:05:07;16.40;55.70
75819;DHT22;64453;51.944;9.796;2023-05-21T04:07:34;16.40;56.10
75819;DHT22;64453;51.944;9.796;2023-05-21T04:10:03;16.40;56.00
75819;DHT22;64453;51.944;9.796;2023-05-21T04:12:32;16.50;56.10
75819;DHT22;64453;51.944;9.796;2023-05-21T04:14:59;16.40;55.60
75819;DHT22;64453;51.944;9.796;2023-05-21T04:17:27;16.40;56.10
75819;DHT22;64453;51.944;9.796;2023-05-21T04:19:54;16.40;56.30
75819;DHT22;64453;51.944;9.796;2023-05-21T04:22:20;16.50;56.40
75819;DHT22;64453;51.944;9.796;2023-05-21T04:24:51;16.50;56.40
75819;DHT22;64453;51.944;9.796;2023-05-21T04:27:20;16.50;56.30
75819;DHT22;64453;51.944;9.796;2023-05-21T04:29:49;16.50;56.40
75819;DHT22;64453;51.944;9.796;2023-05-21T04:32:19;16.60;56.60
75819;DHT22;64453;51.944;9.796;2023-05-21T04:34:46;16.60;56.60
75819;DHT22;64453;51.944;9.796;2023-05-21T04:37:14;16.60;56.90
75819;DHT22;64453;51.944;9.796;2023-05-21T04:39:42;16.50;57.10
75819;DHT22;64453;51.944;9.796;2023-05-21T04:42:09;16.60;57.30
75819;DHT22;64453;51.944;9.796;2023-05-21T04:44:36;16.50;57.80
75819;DHT22;64453;51.944;9.796;2023-05-21T04:47:06;16.50;57.90
75819;DHT22;64453;51.944;9.796;2023-05-21T04:49:33;16.50;58.00
75819;DHT22;64453;51.944;9.796;2023-05-21T04:52:00;16.50;58.30
75819;DHT22;64453;51.944;9.796;2023-05-21T04:54:27;16.60;58.30
75819;DHT22;64453;51.944;9.796;2023-05-21T04:56:54;16.60;58.30
75819;DHT22;64453;51.944;9.796;2023-05-21T04:59:22;16.70;58.20
75819;DHT22;64453;51.944;9.796;2023-05-21T05:01:49;16.80;58.50
75819;DHT22;64453;51.944;9.796;2023-05-21T05:04:17;16.80;58.40
75819;DHT22;64453;51.944;9.796;2023-05-21T05:06:44;16.70;58.40
75819;DHT22;64453;51.944;9.796;2023-05-21T05:09:11;16.80;58.70
75819;DHT22;64453;51.944;9.796;2023-05-21T05:11:38;16.70;59.00
75819;DHT22;64453;51.944;9.796;2023-05-21T05:14:05;16.80;59.10
75819;DHT22;64453;51.944;9.796;2023-05-21T05:16:32;16.80;59.10
75819;DHT22;64453;51.944;9.796;2023-05-21T05:19:00;16.90;59.10
75819;DHT22;64453;51.944;9.796;2023-05-21T05:21:28;16.90;59.10
75819;DHT22;64453;51.944;9.796;2023-05-21T05:23:55;16.90;59.10
75819;DHT22;64453;51.944;9.796;2023-05-21T05:26:22;16.90;59.10
75819;DHT22;64453;51.944;9.796;2023-05-21T05:28:49;16.90;59.60
75819;DHT22;64453;51.944;9.796;2023-05-21T05:31:16;16.90;59.90
75819;DHT22;64453;51.944;9.796;2023-05-21T05:33:42;17.00;60.20
75819;DHT22;64453;51.944;9.796;2023-05-21T05:36:09;17.00;60.60
75819;DHT22;64453;51.944;9.796;2023-05-21T05:38:37;17.00;60.50
75819;DHT22;64453;51.944;9.796;2023-05-21T05:41:04;17.10;60.60
75819;DHT22;64453;51.944;9.796;2023-05-21T05:43:31;17.10;60.60
75819;DHT22;64453;51.944;9.796;2023-05-21T05:45:58;17.20;60.80
75819;DHT22;64453;51.944;9.796;2023-05-21T05:48:25;17.20;60.80
75819;DHT22;64453;51.944;9.796;2023-05-21T05:50:52;17.20;61.00
75819;DHT22;64453;51.944;9.796;2023-05-21T05:53:21;17.30;61.90
75819;DHT22;64453;51.944;9.796;2023-05-21T05:55:49;17.30;61.70
75819;DHT22;64453;51.944;9.796;2023-05-21T05:58:16;17.40;61.80
75819;DHT22;64453;51.944;9.796;2023-05-21T06:00:43;17.40;62.10
75819;DHT22;64453;51.944;9.796;2023-05-21T06:03:10;17.40;62.80
75819;DHT22;64453;51.944;9.796;2023-05-21T06:05:37;17.30;63.30
75819;DHT22;64453;51.944;9.796;2023-05-21T06:08:04;17.40;63.70
75819;DHT22;64453;51.944;9.796;2023-05-21T06:10:31;17.40;63.20
75819;DHT22;64453;51.944;9.796;2023-05-21T06:12:59;17.40;63.80
75819;DHT22;64453;51.944;9.796;2023-05-21T06:15:26;17.40;64.20
75819;DHT22;64453;51.944;9.796;2023-05-21T06:17:53;17.40;63.90
75819;DHT22;64453;51.944;9.796;2023-05-21T06:20:23;17.40;63.60
75819;DHT22;64453;51.944;9.796;2023-05-21T06:22:50;17.40;63.70
75819;DHT22;64453;51.944;9.796;2023-05-21T06:25:17;17.50;64.40
75819;DHT22;64453;51.944;9.796;2023-05-21T06:27:44;17.50;64.60
75819;DHT22;64453;51.944;9.796;2023-05-21T06:30:12;17.60;64.80
75819;DHT22;64453;51.944;9.796;2023-05-21T06:32:39;17.60;64.80
75819;DHT22;64453;51.944;9.796;2023-05-21T06:35:06;17.70;64.80
75819;DHT22;64453;51.944;9.796;2023-05-21T06:37:33;17.70;64.30
75819;DHT22;64453;51.944;9.796;2023-05-21T06:40:00;17.60;64.60
75819;DHT22;64453;51.944;9.796;2023-05-21T06:42:28;17.70;65.40
75819;DHT22;64453;51.944;9.796;2023-05-21T06:44:55;17.70;65.10
75819;DHT22;64453;51.944;9.796;2023-05-21T06:47:23;17.80;64.80
75819;DHT22;64453;51.944;9.796;2023-05-21T06:49:50;17.90;65.00
75819;DHT22;64453;51.944;9.796;2023-05-21T06:52:17;17.90;64.60
75819;DHT22;64453;51.944;9.796;2023-05-21T06:54:43;17.90;64.80
75819;DHT22;64453;51.944;9.796;2023-05-21T06:57:10;17.90;64.80
75819;DHT22;64453;51.944;9.796;2023-05-21T06:59:39;18.00;64.20
75819;DHT22;64453;51.944;9.796;2023-05-21T07:02:05;17.80;64.50
75819;DHT22;64453;51.944;9.796;2023-05-21T07:04:34;17.80;64.90
75819;DHT22;64453;51.944;9.796;2023-05-21T07:07:00;17.80;64.80
75819;DHT22;64453;51.944;9.796;2023-05-21T07:09:28;17.90;64.60
75819;DHT22;64453;51.944;9.796;2023-05-21T07:11:55;17.90;64.50
75819;DHT22;64453;51.944;9.796;2023-05-21T07:14:24;17.90;64.90
75819;DHT22;64453;51.944;9.796;2023-05-21T07:16:51;18.00;64.80
75819;DHT22;64453;51.944;9.796;2023-05-21T07:19:18;17.90;64.70
75819;DHT22;64453;51.944;9.796;2023-05-21T07:21:46;17.90;64.80
75819;DHT22;64453;51.944;9.796;2023-05-21T07:24:13;17.90;64.70
75819;DHT22;64453;51.944;9.796;2023-05-21T07:26:40;18.00;64.90
75819;DHT22;64453;51.944;9.796;2023-05-21T07:29:07;18.10;65.10
75819;DHT22;64453;51.944;9.796;2023-05-21T07:31:34;18.10;65.20
75819;DHT22;64453;51.944;9.796;2023-05-21T07:34:01;18.10;65.10
75819;DHT22;64453;51.944;9.796;2023-05-21T07:36:28;18.10;65.60
75819;DHT22;64453;51.944;9.796;2023-05-21T07:38:56;18.20;65.60
75819;DHT22;64453;51.944;9.796;2023-05-21T07:41:23;18.10;65.20
75819;DHT22;64453;51.944;9.796;2023-05-21T07:43:50;18.20;65.10
75819;DHT22;64453;51.944;9.796;2023-05-21T07:46:17;18.10;64.70
75819;DHT22;64453;51.944;9.796;2023-05-21T07:48:44;18.20;65.30
75819;DHT22;64453;51.944;9.796;2023-05-21T07:51:12;18.20;64.90
75819;DHT22;64453;51.944;9.796;2023-05-21T07:53:39;18.40;65.30
75819;DHT22;64453;51.944;9.796;2023-05-21T07:56:07;18.40;65.80
75819;DHT22;64453;51.944;9.796;2023-05-21T07:58:35;18.30;64.80
75819;DHT22;64453;51.944;9.796;2023-05-21T08:01:02;18.40;65.00
75819;DHT22;64453;51.944;9.796;2023-05-21T08:03:29;18.40;65.10
75819;DHT22;64453;51.944;9.796;2023-05-21T08:05:56;18.50;65.20
75819;DHT22;64453;51.944;9.796;2023-05-21T08:08:23;18.40;66.40
75819;DHT22;64453;51.944;9.796;2023-05-21T08:10:50;18.50;65.90
75819;DHT22;64453;51.944;9.796;2023-05-21T08:13:19;18.70;66.50
75819;DHT22;64453;51.944;9.796;2023-05-21T08:15:47;18.70;65.80
75819;DHT22;64453;51.944;9.796;2023-05-21T08:18:14;18.60;65.70
75819;DHT22;64453;51.944;9.796;2023-05-21T08:20:42;18.50;66.30
75819;DHT22;64453;51.944;9.796;2023-05-21T08:23:09;18.40;67.50
75819;DHT22;64453;51.944;9.796;2023-05-21T08:25:36;18.50;66.70
75819;DHT22;64453;51.944;9.796;2023-05-21T08:28:02;18.70;66.60
75819;DHT22;64453;51.944;9.796;2023-05-21T08:30:31;18.80;66.60
75819;DHT22;64453;51.944;9.796;2023-05-21T08:32:58;18.90;67.10
75819;DHT22;64453;51.944;9.796;2023-05-21T08:35:25;18.90;66.60
75819;DHT22;64453;51.944;9.796;2023-05-21T08:37:54;18.90;67.40
75819;DHT22;64453;51.944;9.796;2023-05-21T08:40:21;19.00;66.80
75819;DHT22;64453;51.944;9.796;2023-05-21T08:42:48;19.00;66.60
75819;DHT22;64453;51.944;9.796;2023-05-21T08:45:19;19.00;66.70
75819;DHT22;64453;51.944;9.796;2023-05-21T08:47:54;19.00;66.60
75819;DHT22;64453;51.944;9.796;2023-05-21T08:50:23;19.10;66.10
75819;DHT22;64453;51.944;9.796;2023-05-21T08:52:52;19.20;66.70
75819;DHT22;64453;51.944;9.796;2023-05-21T08:55:22;19.20;67.20
75819;DHT22;64453;51.944;9.796;2023-05-21T08:57:49;19.30;66.80
75819;DHT22;64453;51.944;9.796;2023-05-21T09:00:19;19.30;66.70
75819;DHT22;64453;51.944;9.796;2023-05-21T09:02:48;19.30;67.10
75819;DHT22;64453;51.944;9.796;2023-05-21T09:05:18;19.30;66.70
75819;DHT22;64453;51.944;9.796;2023-05-21T09:07:49;19.30;66.90
75819;DHT22;64453;51.944;9.796;2023-05-21T09:10:23;19.50;67.30
75819;DHT22;64453;51.944;9.796;2023-05-21T09:12:55;19.50;68.20
75819;DHT22;64453;51.944;9.796;2023-05-21T09:15:22;19.60;68.90
75819;DHT22;64453;51.944;9.796;2023-05-21T09:17:50;19.70;68.20
75819;DHT22;64453;51.944;9.796;2023-05-21T09:20:23;19.60;68.10
75819;DHT22;64453;51.944;9.796;2023-05-21T09:22:51;19.60;69.80
75819;DHT22;64453;51.944;9.796;2023-05-21T09:25:21;19.70;69.50
75819;DHT22;64453;51.944;9.796;2023-05-21T09:27:49;19.80;68.70
75819;DHT22;64453;51.944;9.796;2023-05-21T09:30:17;19.70;67.70
75819;DHT22;64453;51.944;9.796;2023-05-21T09:32:44;19.70;68.40
75819;DHT22;64453;51.944;9.796;2023-05-21T09:35:13;19.80;68.50
75819;DHT22;64453;51.944;9.796;2023-05-21T09:37:41;19.90;68.10
75819;DHT22;64453;51.944;9.796;2023-05-21T09:40:10;20.00;67.60
75819;DHT22;64453;51.944;9.796;2023-05-21T09:42:42;20.00;67.30
75819;DHT22;64453;51.944;9.796;2023-05-21T09:45:16;20.10;68.90
75819;DHT22;64453;51.944;9.796;2023-05-21T09:47:44;20.10;69.00
75819;DHT22;64453;51.944;9.796;2023-05-21T09:50:16;20.10;69.40
75819;DHT22;64453;51.944;9.796;2023-05-21T09:52:44;20.10;67.20
75819;DHT22;64453;51.944;9.796;2023-05-21T09:55:12;20.10;68.90
75819;DHT22;64453;51.944;9.796;2023-05-21T09:57:40;20.20;68.10
75819;DHT22;64453;51.944;9.796;2023-05-21T10:00:17;20.30;68.50
75819;DHT22;64453;51.944;9.796;2023-05-21T10:02:46;20.30;69.10
75819;DHT22;64453;51.944;9.796;2023-05-21T10:05:15;20.40;68.80
75819;DHT22;64453;51.944;9.796;2023-05-21T10:07:47;20.50;69.40
75819;DHT22;64453;51.944;9.796;2023-05-21T10:10:15;20.60;68.60
75819;DHT22;64453;51.944;9.796;2023-05-21T10:12:45;20.70;69.50
75819;DHT22;64453;51.944;9.796;2023-05-21T10:15:16;20.70;69.50
75819;DHT22;64453;51.944;9.796;2023-05-21T10:17:47;20.80;69.30
75819;DHT22;64453;51.944;9.796;2023-05-21T10:20:16;20.80;69.70
75819;DHT22;64453;51.944;9.796;2023-05-21T10:22:43;20.90;68.70
75819;DHT22;64453;51.944;9.796;2023-05-21T10:25:12;21.00;67.20
75819;DHT22;64453;51.944;9.796;2023-05-21T10:27:40;21.00;67.00
75819;DHT22;64453;51.944;9.796;2023-05-21T10:30:08;21.00;66.60
75819;DHT22;64453;51.944;9.796;2023-05-21T10:32:35;21.10;68.20
75819;DHT22;64453;51.944;9.796;2023-05-21T10:35:02;21.20;66.50
75819;DHT22;64453;51.944;9.796;2023-05-21T10:37:30;21.20;67.70
75819;DHT22;64453;51.944;9.796;2023-05-21T10:39:57;21.20;66.60
75819;DHT22;64453;51.944;9.796;2023-05-21T10:43:00;21.30;69.40
75819;DHT22;64453;51.944;9.796;2023-05-21T10:45:42;21.40;68.60
75819;DHT22;64453;51.944;9.796;2023-05-21T10:48:27;21.40;68.10
75819;DHT22;64453;51.944;9.796;2023-05-21T10:51:17;21.50;66.80
75819;DHT22;64453;51.944;9.796;2023-05-21T10:54:03;21.60;67.70
75819;DHT22;64453;51.944;9.796;2023-05-21T10:56:43;21.70;68.10
75819;DHT22;64453;51.944;9.796;2023-05-21T10:59:19;21.80;66.90
75819;DHT22;64453;51.944;9.796;2023-05-21T11:01:51;21.80;67.30
75819;DHT22;64453;51.944;9.796;2023-05-21T11:04:24;21.80;66.80
75819;DHT22;64453;51.944;9.796;2023-05-21T11:06:52;21.80;67.80
75819;DHT22;64453;51.944;9.796;2023-05-21T11:09:20;21.90;68.50
75819;DHT22;64453;51.944;9.796;2023-05-21T11:11:49;21.90;68.80
75819;DHT22;64453;51.944;9.796;2023-05-21T11:14:34;22.10;67.10
75819;DHT22;64453;51.944;9.796;2023-05-21T11:17:09;22.10;67.40
75819;DHT22;64453;51.944;9.796;2023-05-21T11:19:38;22.10;67.50
75819;DHT22;64453;51.944;9.796;2023-05-21T11:22:20;22.30;65.80
75819;DHT22;64453;51.944;9.796;2023-05-21T11:24:50;22.30;65.90
75819;DHT22;64453;51.944;9.796;2023-05-21T11:27:30;22.40;67.20
75819;DHT22;64453;51.944;9.796;2023-05-21T11:29:58;22.40;67.20
75819;DHT22;64453;51.944;9.796;2023-05-21T11:32:25;22.40;65.90
75819;DHT22;64453;51.944;9.796;2023-05-21T11:34:52;22.40;67.20
75819;DHT22;64453;51.944;9.796;2023-05-21T11:37:23;22.40;66.00
75819;DHT22;64453;51.944;9.796;2023-05-21T11:39:55;22.50;65.10
75819;DHT22;64453;51.944;9.796;2023-05-21T11:42:30;22.60;66.50
75819;DHT22;64453;51.944;9.796;2023-05-21T11:44:58;22.60;65.50
75819;DHT22;64453;51.944;9.796;2023-05-21T11:47:27;22.70;66.60
75819;DHT22;64453;51.944;9.796;2023-05-21T11:49:56;22.70;64.40
75819;DHT22;64453;51.944;9.796;2023-05-21T11:52:24;22.90;64.40
75819;DHT22;64453;51.944;9.796;2023-05-21T11:54:52;23.00;64.80
75819;DHT22;64453;51.944;9.796;2023-05-21T11:57:22;23.00;65.20
75819;DHT22;64453;51.944;9.796;2023-05-21T11:59:53;23.00;63.70
75819;DHT22;64453;51.944;9.796;2023-05-21T12:02:21;23.10;63.90
75819;DHT22;64453;51.944;9.796;2023-05-21T12:04:49;23.10;62.80
75819;DHT22;64453;51.944;9.796;2023-05-21T12:07:17;23.10;61.70
75819;DHT22;64453;51.944;9.796;2023-05-21T12:09:45;23.20;60.10
75819;DHT22;64453;51.944;9.796;2023-05-21T12:12:14;23.30;62.00
75819;DHT22;64453;51.944;9.796;2023-05-21T12:14:44;23.20;62.60
75819;DHT22;64453;51.944;9.796;2023-05-21T12:17:15;23.20;61.40
75819;DHT22;64453;51.944;9.796;2023-05-21T12:19:43;23.20;62.30
75819;DHT22;64453;51.944;9.796;2023-05-21T12:22:11;23.30;63.80
75819;DHT22;64453;51.944;9.796;2023-05-21T12:24:39;23.30;62.80
75819;DHT22;64453;51.944;9.796;2023-05-21T12:27:08;23.40;62.40
75819;DHT22;64453;51.944;9.796;2023-05-21T12:29:38;23.40;63.40
75819;DHT22;64453;51.944;9.796;2023-05-21T12:32:09;23.50;62.90
75819;DHT22;64453;51.944;9.796;2023-05-21T12:34:42;23.50;62.60
75819;DHT22;64453;51.944;9.796;2023-05-21T12:37:11;23.50;60.50
75819;DHT22;64453;51.944;9.796;2023-05-21T12:39:39;23.50;62.90
75819;DHT22;64453;51.944;9.796;2023-05-21T12:42:07;23.50;62.30
75819;DHT22;64453;51.944;9.796;2023-05-21T12:44:34;23.70;62.70
75819;DHT22;64453;51.944;9.796;2023-05-21T12:47:01;23.70;63.70
75819;DHT22;64453;51.944;9.796;2023-05-21T12:49:39;23.80;63.50
75819;DHT22;64453;51.944;9.796;2023-05-21T12:52:10;23.90;61.60
75819;DHT22;64453;51.944;9.796;2023-05-21T12:54:39;23.90;63.00
75819;DHT22;64453;51.944;9.796;2023-05-21T12:57:13;24.00;63.70
75819;DHT22;64453;51.944;9.796;2023-05-21T12:59:49;24.10;62.20
75819;DHT22;64453;51.944;9.796;2023-05-21T13:02:22;24.20;62.30
75819;DHT22;64453;51.944;9.796;2023-05-21T13:04:55;24.30;62.00
75819;DHT22;64453;51.944;9.796;2023-05-21T13:07:23;24.30;62.20
75819;DHT22;64453;51.944;9.796;2023-05-21T13:09:51;24.40;61.90
75819;DHT22;64453;51.944;9.796;2023-05-21T13:12:19;24.40;61.10
75819;DHT22;64453;51.944;9.796;2023-05-21T13:14:47;24.60;61.40
75819;DHT22;64453;51.944;9.796;2023-05-21T13:17:14;24.60;60.20
75819;DHT22;64453;51.944;9.796;2023-05-21T13:19:41;24.70;58.70
75819;DHT22;64453;51.944;9.796;2023-05-21T13:22:10;24.80;59.80
75819;DHT22;64453;51.944;9.796;2023-05-21T13:24:36;24.80;59.40
75819;DHT22;64453;51.944;9.796;2023-05-21T13:27:04;24.90;59.40
75819;DHT22;64453;51.944;9.796;2023-05-21T13:29:32;25.00;58.30
75819;DHT22;64453;51.944;9.796;2023-05-21T13:32:00;25.00;57.80
75819;DHT22;64453;51.944;9.796;2023-05-21T13:34:27;25.10;56.50
75819;DHT22;64453;51.944;9.796;2023-05-21T13:36:54;25.20;55.80
75819;DHT22;64453;51.944;9.796;2023-05-21T13:39:22;25.20;55.60
75819;DHT22;64453;51.944;9.796;2023-05-21T13:41:52;25.20;55.70
75819;DHT22;64453;51.944;9.796;2023-05-21T13:44:19;25.20;54.80
75819;DHT22;64453;51.944;9.796;2023-05-21T13:46:46;25.30;54.80
75819;DHT22;64453;51.944;9.796;2023-05-21T13:49:13;25.40;54.20
75819;DHT22;64453;51.944;9.796;2023-05-21T13:51:40;25.40;53.90
75819;DHT22;64453;51.944;9.796;2023-05-21T13:54:07;25.50;53.90
75819;DHT22;64453;51.944;9.796;2023-05-21T13:56:35;25.50;54.50
75819;DHT22;64453;51.944;9.796;2023-05-21T13:59:05;25.60;54.40
75819;DHT22;64453;51.944;9.796;2023-05-21T14:01:31;25.60;53.00
75819;DHT22;64453;51.944;9.796;2023-05-21T14:03:58;25.60;52.80
75819;DHT22;64453;51.944;9.796;2023-05-21T14:06:29;25.70;52.60
75819;DHT22;64453;51.944;9.796;2023-05-21T14:08:57;25.70;52.70
75819;DHT22;64453;51.944;9.796;2023-05-21T14:11:24;25.70;52.40
75819;DHT22;64453;51.944;9.796;2023-05-21T14:13:52;25.70;51.70
75819;DHT22;64453;51.944;9.796;2023-05-21T14:16:20;25.70;52.20
75819;DHT22;64453;51.944;9.796;2023-05-21T14:18:49;25.70;50.60
75819;DHT22;64453;51.944;9.796;2023-05-21T14:21:17;25.80;50.50
75819;DHT22;64453;51.944;9.796;2023-05-21T14:23:43;25.80;50.00
75819;DHT22;64453;51.944;9.796;2023-05-21T14:26:10;25.70;49.80
75819;DHT22;64453;51.944;9.796;2023-05-21T14:28:37;25.80;49.30
75819;DHT22;64453;51.944;9.796;2023-05-21T14:31:06;25.80;49.00
75819;DHT22;64453;51.944;9.796;2023-05-21T14:33:34;25.80;49.10
75819;DHT22;64453;51.944;9.796;2023-05-21T14:36:01;25.90;49.70
75819;DHT22;64453;51.944;9.796;2023-05-21T14:38:28;26.10;49.90
75819;DHT22;64453;51.944;9.796;2023-05-21T14:40:55;26.00;48.90
75819;DHT22;64453;51.944;9.796;2023-05-21T14:43:22;26.00;48.80
75819;DHT22;64453;51.944;9.796;2023-05-21T14:45:49;26.10;49.00
75819;DHT22;64453;51.944;9.796;2023-05-21T14:48:18;26.10;49.10
75819;DHT22;64453;51.944;9.796;2023-05-21T14:50:47;26.20;49.70
75819;DHT22;64453;51.944;9.796;2023-05-21T14:53:15;26.30;49.00
75819;DHT22;64453;51.944;9.796;2023-05-21T14:55:42;26.40;48.60
75819;DHT22;64453;51.944;9.796;2023-05-21T14:58:10;26.50;48.50
75819;DHT22;64453;51.944;9.796;2023-05-21T15:00:37;26.60;48.50
75819;DHT22;64453;51.944;9.796;2023-05-21T15:03:04;26.70;49.20
75819;DHT22;64453;51.944;9.796;2023-05-21T15:05:33;26.80;49.20
75819;DHT22;64453;51.944;9.796;2023-05-21T15:08:00;26.90;48.30
75819;DHT22;64453;51.944;9.796;2023-05-21T15:10:28;27.00;48.10
75819;DHT22;64453;51.944;9.796;2023-05-21T15:12:55;27.00;47.20
75819;DHT22;64453;51.944;9.796;2023-05-21T15:15:22;27.00;47.50
75819;DHT22;64453;51.944;9.796;2023-05-21T15:17:49;27.10;46.00
75819;DHT22;64453;51.944;9.796;2023-05-21T15:20:16;27.20;46.60
75819;DHT22;64453;51.944;9.796;2023-05-21T15:22:45;27.20;46.60
75819;DHT22;64453;51.944;9.796;2023-05-21T15:25:12;27.30;45.90
75819;DHT22;64453;51.944;9.796;2023-05-21T15:27:39;27.60;46.00
75819;DHT22;64453;51.944;9.796;2023-05-21T15:30:07;27.80;44.90
75819;DHT22;64453;51.944;9.796;2023-05-21T15:32:37;27.70;44.20
75819;DHT22;64453;51.944;9.796;2023-05-21T15:35:04;28.00;44.40
75819;DHT22;64453;51.944;9.796;2023-05-21T15:37:32;28.60;43.00